sensor_id;sensor_type;location;lat;lon;timestamp;temperature;humidity
17701;DHT22;8969;48.576;12.580;2023-02-01T00:00:06;4.10;99.90
17701;DHT22;8969;48.576;12.580;2023-02-01T00:02:34;4.00;99.90
17701;DHT22;8969;48.576;12.580;2023-02-01T00:05:07;4.00;99.90
17701;DHT22;8969;48.576;12.580;2023-02-01T00:07:37;4.00;99.90
17701;DHT22;8969;48.576;12.580;2023-02-01T00:10:08;4.00;99.90
17701;DHT22;8969;48.576;12.580;2023-02-01T00:12:36;4.00;99.90
17701;DHT22;8969;48.576;12.580;2023-02-01T00:15:05;4.00;99.90
17701;DHT22;8969;48.576;12.580;2023-02-01T00:17:33;4.00;99.90
17701;DHT22;8969;48.576;12.580;2023-02-01T00:20:01;4.00;99.90
17701;DHT22;8969;48.576;12.580;2023-02-01T00:22:30;4.00;99.90
17701;DHT22;8969;48.576;12.580;2023-02-01T00:24:58;4.00;99.90
17701;DHT22;8969;48.576;12.580;2023-02-01T00:27:28;4.10;99.90
17701;DHT22;8969;48.576;12.580;2023-02-01T00:29:56;4.10;99.90
17701;DHT22;8969;48.576;12.580;2023-02-01T00:32:24;4.00;99.90
17701;DHT22;8969;48.576;12.580;2023-02-01T00:34:53;4.10;99.90
17701;DHT22;8969;48.576;12.580;2023-02-01T00:37:20;4.10;99.90
17701;DHT22;8969;48.576;12.580;2023-02-01T00:39:50;4.00;99.90
17701;DHT22;8969;48.576;12.580;2023-02-01T00:46:35;4.00;99.90
17701;DHT22;8969;48.576;12.580;2023-02-01T00:49:04;4.00;99.90
17701;DHT22;8969;48.576;12.580;2023-02-01T00:51:35;4.00;99.90
17701;DHT22;8969;48.576;12.580;2023-02-01T00:54:04;4.00;99.90
17701;DHT22;8969;48.576;12.580;2023-02-01T00:56:32;4.00;99.90
17701;DHT22;8969;48.576;12.580;2023-02-01T00:59:00;4.00;99.90
17701;DHT22;8969;48.576;12.580;2023-02-01T01:01:28;4.00;99.90
17701;DHT22;8969;48.576;12.580;2023-02-01T01:03:59;4.10;99.90
17701;DHT22;8969;48.576;12.580;2023-02-01T01:06:29;4.00;99.90
17701;DHT22;8969;48.576;12.580;2023-02-01T01:09:00;4.10;99.90
17701;DHT22;8969;48.576;12.580;2023-02-01T01:11:30;4.00;99.90
17701;DHT22;8969;48.576;12.580;2023-02-01T01:13:59;4.10;99.90
17701;DHT22;8969;48.576;12.580;2023-02-01T01:16:29;4.00;99.90
17701;DHT22;8969;48.576;12.580;2023-02-01T01:19:01;4.00;99.90
17701;DHT22;8969;48.576;12.580;2023-02-01T01:21:30;4.00;99.90
17701;DHT22;8969;48.576;12.580;2023-02-01T01:23:59;4.00;99.90
17701;DHT22;8969;48.576;12.580;2023-02-01T01:26:29;4.00;99.90
17701;DHT22;8969;48.576;12.580;2023-02-01T01:28:59;4.00;99.90
17701;DHT22;8969;48.576;12.580;2023-02-01T01:31:27;4.00;99.90
17701;DHT22;8969;48.576;12.580;2023-02-01T01:33:58;4.00;99.90
17701;DHT22;8969;48.576;12.580;2023-02-01T01:36:28;4.00;99.90
17701;DHT22;8969;48.576;12.580;2023-02-01T01:38:57;4.00;99.90
17701;DHT22;8969;48.576;12.580;2023-02-01T01:41:29;4.00;99.90
17701;DHT22;8969;48.576;12.580;2023-02-01T01:44:06;4.00;99.90
17701;DHT22;8969;48.576;12.580;2023-02-01T01:46:54;4.00;99.90
17701;DHT22;8969;48.576;12.580;2023-02-01T01:49:26;4.00;99.90
17701;DHT22;8969;48.576;12.580;2023-02-01T01:51:56;4.00;99.90
17701;DHT22;8969;48.576;12.580;2023-02-01T01:54:29;4.00;99.90
17701;DHT22;8969;48.576;12.580;2023-02-01T01:57:04;4.00;99.90
17701;DHT22;8969;48.576;12.580;2023-02-01T01:59:36;4.00;99.90
17701;DHT22;8969;48.576;12.580;2023-02-01T02:02:06;4.10;99.90
17701;DHT22;8969;48.576;12.580;2023-02-01T02:04:36;4.00;99.90
17701;DHT22;8969;48.576;12.580;2023-02-01T02:07:09;4.00;99.90
17701;DHT22;8969;48.576;12.580;2023-02-01T02:09:39;4.00;99.90
17701;DHT22;8969;48.576;12.580;2023-02-01T02:12:26;4.00;99.90
17701;DHT22;8969;48.576;12.580;2023-02-01T02:14:55;4.00;99.90
17701;DHT22;8969;48.576;12.580;2023-02-01T02:17:30;4.00;99.90
17701;DHT22;8969;48.576;12.580;2023-02-01T02:20:43;4.00;99.90
17701;DHT22;8969;48.576;12.580;2023-02-01T02:23:35;4.00;99.90
17701;DHT22;8969;48.576;12.580;2023-02-01T02:26:31;4.00;99.90
17701;DHT22;8969;48.576;12.580;2023-02-01T02:32:34;4.00;99.90
17701;DHT22;8969;48.576;12.580;2023-02-01T02:35:11;4.00;99.90
17701;DHT22;8969;48.576;12.580;2023-02-01T02:37:50;4.00;99.90
17701;DHT22;8969;48.576;12.580;2023-02-01T02:40:29;4.00;99.90
17701;DHT22;8969;48.576;12.580;2023-02-01T02:43:05;4.00;99.90
17701;DHT22;8969;48.576;12.580;2023-02-01T02:46:00;4.00;99.90
17701;DHT22;8969;48.576;12.580;2023-02-01T02:49:09;4.00;99.90
17701;DHT22;8969;48.576;12.580;2023-02-01T02:51:44;4.10;99.90
17701;DHT22;8969;48.576;12.580;2023-02-01T02:54:33;4.10;99.90
17701;DHT22;8969;48.576;12.580;2023-02-01T02:57:18;4.10;99.90
17701;DHT22;8969;48.576;12.580;2023-02-01T03:00:08;4.10;99.90
17701;DHT22;8969;48.576;12.580;2023-02-01T03:02:55;4.10;99.90
17701;DHT22;8969;48.576;12.580;2023-02-01T03:05:43;4.10;99.90
17701;DHT22;8969;48.576;12.580;2023-02-01T03:08:14;4.10;99.90
17701;DHT22;8969;48.576;12.580;2023-02-01T03:10:48;4.10;99.90
17701;DHT22;8969;48.576;12.580;2023-02-01T03:13:25;4.10;99.90
17701;DHT22;8969;48.576;12.580;2023-02-01T03:15:59;4.10;99.90
17701;DHT22;8969;48.576;12.580;2023-02-01T03:18:33;4.10;99.90
17701;DHT22;8969;48.576;12.580;2023-02-01T03:21:06;4.20;99.90
17701;DHT22;8969;48.576;12.580;2023-02-01T03:23:38;4.10;99.90
17701;DHT22;8969;48.576;12.580;2023-02-01T03:26:10;4.10;99.90
17701;DHT22;8969;48.576;12.580;2023-02-01T03:28:44;4.20;99.90
17701;DHT22;8969;48.576;12.580;2023-02-01T03:31:14;4.10;99.90
17701;DHT22;8969;48.576;12.580;2023-02-01T03:33:43;4.20;99.90
17701;DHT22;8969;48.576;12.580;2023-02-01T03:36:18;4.20;99.90
17701;DHT22;8969;48.576;12.580;2023-02-01T03:38:55;4.10;99.90
17701;DHT22;8969;48.576;12.580;2023-02-01T03:41:33;4.10;99.90
17701;DHT22;8969;48.576;12.580;2023-02-01T03:44:08;4.10;99.90
17701;DHT22;8969;48.576;12.580;2023-02-01T03:46:43;4.10;99.90
17701;DHT22;8969;48.576;12.580;2023-02-01T03:49:18;4.10;99.90
17701;DHT22;8969;48.576;12.580;2023-02-01T03:51:50;4.10;99.90
17701;DHT22;8969;48.576;12.580;2023-02-01T03:54:21;4.20;99.90
17701;DHT22;8969;48.576;12.580;2023-02-01T03:56:50;4.20;99.90
17701;DHT22;8969;48.576;12.580;2023-02-01T03:59:19;4.20;99.90
17701;DHT22;8969;48.576;12.580;2023-02-01T04:01:47;4.10;99.90
17701;DHT22;8969;48.576;12.580;2023-02-01T04:04:16;4.20;99.90
17701;DHT22;8969;48.576;12.580;2023-02-01T04:06:51;4.10;99.90
17701;DHT22;8969;48.576;12.580;2023-02-01T04:09:21;4.10;99.90
17701;DHT22;8969;48.576;12.580;2023-02-01T04:11:50;4.10;99.90
17701;DHT22;8969;48.576;12.580;2023-02-01T04:14:18;4.10;99.90
17701;DHT22;8969;48.576;12.580;2023-02-01T04:16:46;4.10;99.90
17701;DHT22;8969;48.576;12.580;2023-02-01T04:19:14;4.10;99.90
17701;DHT22;8969;48.576;12.580;2023-02-01T04:21:43;4.10;99.90
17701;DHT22;8969;48.576;12.580;2023-02-01T04:24:11;4.10;99.90
17701;DHT22;8969;48.576;12.580;2023-02-01T04:26:41;4.10;99.90
17701;DHT22;8969;48.576;12.580;2023-02-01T04:29:10;4.10;99.90
17701;DHT22;8969;48.576;12.580;2023-02-01T04:31:38;4.10;99.90
17701;DHT22;8969;48.576;12.580;2023-02-01T04:34:07;4.10;99.90
17701;DHT22;8969;48.576;12.580;2023-02-01T04:36:35;4.10;99.90
17701;DHT22;8969;48.576;12.580;2023-02-01T04:39:03;4.10;99.90
17701;DHT22;8969;48.576;12.580;2023-02-01T04:41:31;4.00;99.90
17701;DHT22;8969;48.576;12.580;2023-02-01T04:44:01;4.00;99.90
17701;DHT22;8969;48.576;12.580;2023-02-01T04:46:29;4.00;99.90
17701;DHT22;8969;48.576;12.580;2023-02-01T04:48:58;4.00;99.90
17701;DHT22;8969;48.576;12.580;2023-02-01T04:51:26;4.00;99.90
17701;DHT22;8969;48.576;12.580;2023-02-01T04:53:54;4.00;99.90
17701;DHT22;8969;48.576;12.580;2023-02-01T04:56:23;4.00;99.90
17701;DHT22;8969;48.576;12.580;2023-02-01T04:58:51;4.00;99.90
17701;DHT22;8969;48.576;12.580;2023-02-01T05:01:22;4.00;99.90
17701;DHT22;8969;48.576;12.580;2023-02-01T05:03:51;4.00;99.90
17701;DHT22;8969;48.576;12.580;2023-02-01T05:06:19;4.00;99.90
17701;DHT22;8969;48.576;12.580;2023-02-01T05:08:49;4.00;99.90
17701;DHT22;8969;48.576;12.580;2023-02-01T05:11:17;4.00;99.90
17701;DHT22;8969;48.576;12.580;2023-02-01T05:13:59;4.00;99.90
17701;DHT22;8969;48.576;12.580;2023-02-01T05:16:30;4.00;99.90
17701;DHT22;8969;48.576;12.580;2023-02-01T05:18:58;3.90;99.90
17701;DHT22;8969;48.576;12.580;2023-02-01T05:21:26;3.90;99.90
17701;DHT22;8969;48.576;12.580;2023-02-01T05:23:55;3.90;99.90
17701;DHT22;8969;48.576;12.580;2023-02-01T05:26:41;3.90;99.90
17701;DHT22;8969;48.576;12.580;2023-02-01T05:29:10;3.90;99.90
17701;DHT22;8969;48.576;12.580;2023-02-01T05:31:40;3.90;99.90
17701;DHT22;8969;48.576;12.580;2023-02-01T05:34:09;3.90;99.90
17701;DHT22;8969;48.576;12.580;2023-02-01T05:36:38;3.90;99.90
17701;DHT22;8969;48.576;12.580;2023-02-01T05:39:06;3.80;99.90
17701;DHT22;8969;48.576;12.580;2023-02-01T05:41:34;3.90;99.90
17701;DHT22;8969;48.576;12.580;2023-02-01T05:44:03;3.90;99.90
17701;DHT22;8969;48.576;12.580;2023-02-01T05:46:34;3.80;99.90
17701;DHT22;8969;48.576;12.580;2023-02-01T05:49:04;3.90;99.90
17701;DHT22;8969;48.576;12.580;2023-02-01T05:51:33;3.80;99.90
17701;DHT22;8969;48.576;12.580;2023-02-01T05:54:01;3.80;99.90
17701;DHT22;8969;48.576;12.580;2023-02-01T05:56:29;3.80;99.90
17701;DHT22;8969;48.576;12.580;2023-02-01T05:58:57;3.80;99.90
17701;DHT22;8969;48.576;12.580;2023-02-01T06:01:25;3.80;99.90
17701;DHT22;8969;48.576;12.580;2023-02-01T06:03:54;3.80;99.90
17701;DHT22;8969;48.576;12.580;2023-02-01T06:06:24;3.80;99.90
17701;DHT22;8969;48.576;12.580;2023-02-01T06:08:52;3.80;99.90
17701;DHT22;8969;48.576;12.580;2023-02-01T06:11:21;3.80;99.90
17701;DHT22;8969;48.576;12.580;2023-02-01T06:13:59;3.80;99.90
17701;DHT22;8969;48.576;12.580;2023-02-01T06:16:28;3.80;99.90
17701;DHT22;8969;48.576;12.580;2023-02-01T06:18:56;3.80;99.90
17701;DHT22;8969;48.576;12.580;2023-02-01T06:21:26;3.80;99.90
17701;DHT22;8969;48.576;12.580;2023-02-01T06:23:54;3.80;99.90
17701;DHT22;8969;48.576;12.580;2023-02-01T06:26:24;3.80;99.90
17701;DHT22;8969;48.576;12.580;2023-02-01T06:28:53;3.80;99.90
17701;DHT22;8969;48.576;12.580;2023-02-01T06:31:22;3.80;99.90
17701;DHT22;8969;48.576;12.580;2023-02-01T06:33:52;3.80;99.90
17701;DHT22;8969;48.576;12.580;2023-02-01T06:36:20;3.80;99.90
17701;DHT22;8969;48.576;12.580;2023-02-01T06:38:50;3.80;99.90
17701;DHT22;8969;48.576;12.580;2023-02-01T06:41:19;3.80;99.90
17701;DHT22;8969;48.576;12.580;2023-02-01T06:43:48;3.80;99.90
17701;DHT22;8969;48.576;12.580;2023-02-01T06:46:16;3.80;99.90
17701;DHT22;8969;48.576;12.580;2023-02-01T06:48:45;3.80;99.90
17701;DHT22;8969;48.576;12.580;2023-02-01T06:51:21;3.80;99.90
17701;DHT22;8969;48.576;12.580;2023-02-01T06:53:50;3.80;99.90
17701;DHT22;8969;48.576;12.580;2023-02-01T06:56:19;3.90;99.90
17701;DHT22;8969;48.576;12.580;2023-02-01T06:58:47;3.90;99.90
17701;DHT22;8969;48.576;12.580;2023-02-01T07:01:17;3.90;99.90
17701;DHT22;8969;48.576;12.580;2023-02-01T07:03:47;3.90;99.90
17701;DHT22;8969;48.576;12.580;2023-02-01T07:06:18;3.90;99.90
17701;DHT22;8969;48.576;12.580;2023-02-01T07:08:46;3.90;99.90
17701;DHT22;8969;48.576;12.580;2023-02-01T07:11:18;3.90;99.90
17701;DHT22;8969;48.576;12.580;2023-02-01T07:13:46;4.00;99.90
17701;DHT22;8969;48.576;12.580;2023-02-01T07:16:16;4.00;99.90
17701;DHT22;8969;48.576;12.580;2023-02-01T07:18:46;4.00;99.90
17701;DHT22;8969;48.576;12.580;2023-02-01T07:21:15;4.00;99.90
17701;DHT22;8969;48.576;12.580;2023-02-01T07:23:43;4.00;99.90
17701;DHT22;8969;48.576;12.580;2023-02-01T07:26:12;4.10;99.90
17701;DHT22;8969;48.576;12.580;2023-02-01T07:28:42;4.10;99.90
17701;DHT22;8969;48.576;12.580;2023-02-01T07:31:13;4.10;99.90
17701;DHT22;8969;48.576;12.580;2023-02-01T07:33:45;4.10;99.90
17701;DHT22;8969;48.576;12.580;2023-02-01T07:36:15;4.10;99.90
17701;DHT22;8969;48.576;12.580;2023-02-01T07:38:44;4.10;99.90
17701;DHT22;8969;48.576;12.580;2023-02-01T07:41:14;4.20;99.90
17701;DHT22;8969;48.576;12.580;2023-02-01T07:43:43;4.20;99.90
17701;DHT22;8969;48.576;12.580;2023-02-01T07:46:12;4.20;99.90
17701;DHT22;8969;48.576;12.580;2023-02-01T07:48:42;4.20;99.90
17701;DHT22;8969;48.576;12.580;2023-02-01T07:51:12;4.20;99.90
17701;DHT22;8969;48.576;12.580;2023-02-01T07:53:44;4.20;99.90
17701;DHT22;8969;48.576;12.580;2023-02-01T07:56:15;4.20;99.90
17701;DHT22;8969;48.576;12.580;2023-02-01T07:58:48;4.20;99.90
17701;DHT22;8969;48.576;12.580;2023-02-01T08:01:20;4.30;99.90
17701;DHT22;8969;48.576;12.580;2023-02-01T08:03:51;4.30;99.90
17701;DHT22;8969;48.576;12.580;2023-02-01T08:06:21;4.30;99.90
17701;DHT22;8969;48.576;12.580;2023-02-01T08:08:50;4.30;99.90
17701;DHT22;8969;48.576;12.580;2023-02-01T08:11:19;4.30;99.90
17701;DHT22;8969;48.576;12.580;2023-02-01T08:13:49;4.30;99.90
17701;DHT22;8969;48.576;12.580;2023-02-01T08:16:18;4.30;99.90
17701;DHT22;8969;48.576;12.580;2023-02-01T08:18:47;4.30;99.90
17701;DHT22;8969;48.576;12.580;2023-02-01T08:21:17;4.30;99.90
17701;DHT22;8969;48.576;12.580;2023-02-01T08:23:46;4.30;99.90
17701;DHT22;8969;48.576;12.580;2023-02-01T08:26:16;4.30;99.90
17701;DHT22;8969;48.576;12.580;2023-02-01T08:28:49;4.30;99.90
17701;DHT22;8969;48.576;12.580;2023-02-01T08:31:19;4.30;99.90
17701;DHT22;8969;48.576;12.580;2023-02-01T08:33:51;4.30;99.90
17701;DHT22;8969;48.576;12.580;2023-02-01T08:36:22;4.30;99.90
17701;DHT22;8969;48.576;12.580;2023-02-01T08:38:51;4.30;99.90
17701;DHT22;8969;48.576;12.580;2023-02-01T08:41:22;4.40;99.90
17701;DHT22;8969;48.576;12.580;2023-02-01T08:43:52;4.40;99.90
17701;DHT22;8969;48.576;12.580;2023-02-01T08:46:22;4.40;99.90
17701;DHT22;8969;48.576;12.580;2023-02-01T08:48:50;4.40;99.90
17701;DHT22;8969;48.576;12.580;2023-02-01T08:51:20;4.40;99.90
17701;DHT22;8969;48.576;12.580;2023-02-01T08:53:49;4.40;99.90
17701;DHT22;8969;48.576;12.580;2023-02-01T08:56:18;4.40;99.90
17701;DHT22;8969;48.576;12.580;2023-02-01T08:58:47;4.40;99.90
17701;DHT22;8969;48.576;12.580;2023-02-01T09:01:17;4.40;99.90
17701;DHT22;8969;48.576;12.580;2023-02-01T09:03:45;4.50;99.90
17701;DHT22;8969;48.576;12.580;2023-02-01T09:06:15;4.50;99.90
17701;DHT22;8969;48.576;12.580;2023-02-01T09:08:45;4.50;99.90
17701;DHT22;8969;48.576;12.580;2023-02-01T09:11:15;4.50;99.90
17701;DHT22;8969;48.576;12.580;2023-02-01T09:13:44;4.40;99.90
17701;DHT22;8969;48.576;12.580;2023-02-01T09:16:13;4.40;99.90
17701;DHT22;8969;48.576;12.580;2023-02-01T09:18:43;4.50;99.90
17701;DHT22;8969;48.576;12.580;2023-02-01T09:21:28;4.50;99.90
17701;DHT22;8969;48.576;12.580;2023-02-01T09:23:56;4.60;99.90
17701;DHT22;8969;48.576;12.580;2023-02-01T09:26:25;4.60;99.90
17701;DHT22;8969;48.576;12.580;2023-02-01T09:28:59;4.50;99.90
17701;DHT22;8969;48.576;12.580;2023-02-01T09:31:27;4.60;99.90
17701;DHT22;8969;48.576;12.580;2023-02-01T09:33:58;4.60;99.90
17701;DHT22;8969;48.576;12.580;2023-02-01T09:36:27;4.60;99.90
17701;DHT22;8969;48.576;12.580;2023-02-01T09:38:57;4.70;99.90
17701;DHT22;8969;48.576;12.580;2023-02-01T09:41:40;4.70;99.90
17701;DHT22;8969;48.576;12.580;2023-02-01T09:44:21;4.70;99.90
17701;DHT22;8969;48.576;12.580;2023-02-01T09:47:01;4.70;99.90
17701;DHT22;8969;48.576;12.580;2023-02-01T09:49:33;4.70;99.90
17701;DHT22;8969;48.576;12.580;2023-02-01T09:52:07;4.70;99.90
17701;DHT22;8969;48.576;12.580;2023-02-01T09:54:41;4.70;99.90
17701;DHT22;8969;48.576;12.580;2023-02-01T09:57:16;4.70;99.90
17701;DHT22;8969;48.576;12.580;2023-02-01T09:59:49;4.70;99.90
17701;DHT22;8969;48.576;12.580;2023-02-01T10:02:20;4.70;99.90
17701;DHT22;8969;48.576;12.580;2023-02-01T10:04:53;4.80;99.90
17701;DHT22;8969;48.576;12.580;2023-02-01T10:07:30;4.90;99.90
17701;DHT22;8969;48.576;12.580;2023-02-01T10:10:03;4.90;99.90
17701;DHT22;8969;48.576;12.580;2023-02-01T10:12:57;5.00;99.90
17701;DHT22;8969;48.576;12.580;2023-02-01T10:15:40;5.10;99.90
17701;DHT22;8969;48.576;12.580;2023-02-01T10:18:28;5.20;99.90
17701;DHT22;8969;48.576;12.580;2023-02-01T10:21:08;5.40;99.90
17701;DHT22;8969;48.576;12.580;2023-02-01T10:23:54;5.40;99.90
17701;DHT22;8969;48.576;12.580;2023-02-01T10:26:33;5.40;99.90
17701;DHT22;8969;48.576;12.580;2023-02-01T10:29:04;5.40;99.90
17701;DHT22;8969;48.576;12.580;2023-02-01T10:31:35;5.40;99.90
17701;DHT22;8969;48.576;12.580;2023-02-01T10:34:13;5.50;99.90
17701;DHT22;8969;48.576;12.580;2023-02-01T10:36:52;5.60;99.90
17701;DHT22;8969;48.576;12.580;2023-02-01T10:39:21;5.60;99.90
17701;DHT22;8969;48.576;12.580;2023-02-01T10:41:52;5.70;99.90
17701;DHT22;8969;48.576;12.580;2023-02-01T10:44:26;5.70;99.90
17701;DHT22;8969;48.576;12.580;2023-02-01T10:46:54;5.70;99.90
17701;DHT22;8969;48.576;12.580;2023-02-01T10:49:28;5.80;99.90
17701;DHT22;8969;48.576;12.580;2023-02-01T10:52:05;5.80;99.90
17701;DHT22;8969;48.576;12.580;2023-02-01T10:54:39;5.80;99.90
17701;DHT22;8969;48.576;12.580;2023-02-01T10:57:07;5.80;99.90
17701;DHT22;8969;48.576;12.580;2023-02-01T10:59:36;5.80;99.90
17701;DHT22;8969;48.576;12.580;2023-02-01T11:02:26;5.80;99.90
17701;DHT22;8969;48.576;12.580;2023-02-01T11:05:00;5.80;99.90
17701;DHT22;8969;48.576;12.580;2023-02-01T11:07:31;5.80;99.90
17701;DHT22;8969;48.576;12.580;2023-02-01T11:10:00;5.70;99.90
17701;DHT22;8969;48.576;12.580;2023-02-01T11:12:31;5.80;99.90
17701;DHT22;8969;48.576;12.580;2023-02-01T11:15:14;5.80;99.90
17701;DHT22;8969;48.576;12.580;2023-02-01T11:17:47;5.70;99.90
17701;DHT22;8969;48.576;12.580;2023-02-01T11:20:20;5.50;99.90
17701;DHT22;8969;48.576;12.580;2023-02-01T11:22:54;5.40;99.90
17701;DHT22;8969;48.576;12.580;2023-02-01T11:25:23;5.40;99.90
17701;DHT22;8969;48.576;12.580;2023-02-01T11:27:54;5.40;99.90
17701;DHT22;8969;48.576;12.580;2023-02-01T11:30:31;5.40;99.90
17701;DHT22;8969;48.576;12.580;2023-02-01T11:33:01;5.40;99.90
17701;DHT22;8969;48.576;12.580;2023-02-01T11:35:37;5.60;99.90
17701;DHT22;8969;48.576;12.580;2023-02-01T11:38:20;5.70;99.90
17701;DHT22;8969;48.576;12.580;2023-02-01T11:40:49;5.70;99.90
17701;DHT22;8969;48.576;12.580;2023-02-01T11:43:23;5.70;99.90
17701;DHT22;8969;48.576;12.580;2023-02-01T11:45:57;5.70;99.90
17701;DHT22;8969;48.576;12.580;2023-02-01T11:48:27;5.70;99.90
17701;DHT22;8969;48.576;12.580;2023-02-01T11:51:14;5.80;99.90
17701;DHT22;8969;48.576;12.580;2023-02-01T11:54:06;5.80;99.90
17701;DHT22;8969;48.576;12.580;2023-02-01T11:56:44;5.80;99.90
17701;DHT22;8969;48.576;12.580;2023-02-01T11:59:28;5.70;99.90
17701;DHT22;8969;48.576;12.580;2023-02-01T12:02:20;5.70;99.90
17701;DHT22;8969;48.576;12.580;2023-02-01T12:07:57;5.50;99.90
17701;DHT22;8969;48.576;12.580;2023-02-01T12:10:42;5.40;99.90
17701;DHT22;8969;48.576;12.580;2023-02-01T12:13:20;5.40;99.90
17701;DHT22;8969;48.576;12.580;2023-02-01T12:16:00;5.40;99.90
17701;DHT22;8969;48.576;12.580;2023-02-01T12:18:54;5.30;99.90
17701;DHT22;8969;48.576;12.580;2023-02-01T12:21:50;5.20;99.90
17701;DHT22;8969;48.576;12.580;2023-02-01T12:24:40;5.20;99.90
17701;DHT22;8969;48.576;12.580;2023-02-01T12:27:36;5.10;99.90
17701;DHT22;8969;48.576;12.580;2023-02-01T12:30:29;5.00;99.90
17701;DHT22;8969;48.576;12.580;2023-02-01T12:33:06;5.00;99.90
17701;DHT22;8969;48.576;12.580;2023-02-01T12:35:46;5.00;99.90
17701;DHT22;8969;48.576;12.580;2023-02-01T12:38:24;4.90;99.90
17701;DHT22;8969;48.576;12.580;2023-02-01T12:41:09;4.90;99.90
17701;DHT22;8969;48.576;12.580;2023-02-01T12:43:45;4.90;99.90
17701;DHT22;8969;48.576;12.580;2023-02-01T12:46:17;5.00;99.90
17701;DHT22;8969;48.576;12.580;2023-02-01T12:48:53;4.90;99.90
17701;DHT22;8969;48.576;12.580;2023-02-01T12:51:24;4.90;99.90
17701;DHT22;8969;48.576;12.580;2023-02-01T12:53:57;5.00;99.90
17701;DHT22;8969;48.576;12.580;2023-02-01T12:56:31;5.00;99.90
17701;DHT22;8969;48.576;12.580;2023-02-01T12:59:09;5.10;99.90
17701;DHT22;8969;48.576;12.580;2023-02-01T13:01:45;5.20;99.90
17701;DHT22;8969;48.576;12.580;2023-02-01T13:04:20;5.20;99.90
17701;DHT22;8969;48.576;12.580;2023-02-01T13:06:57;5.30;99.90
17701;DHT22;8969;48.576;12.580;2023-02-01T13:09:32;5.20;99.90
17701;DHT22;8969;48.576;12.580;2023-02-01T13:12:08;5.30;99.90
17701;DHT22;8969;48.576;12.580;2023-02-01T13:14:44;5.20;99.90
17701;DHT22;8969;48.576;12.580;2023-02-01T13:17:18;5.20;99.90
17701;DHT22;8969;48.576;12.580;2023-02-01T13:19:52;5.20;99.90
17701;DHT22;8969;48.576;12.580;2023-02-01T13:22:25;5.20;99.90
17701;DHT22;8969;48.576;12.580;2023-02-01T13:25:00;5.20;99.90
17701;DHT22;8969;48.576;12.580;2023-02-01T13:27:31;5.20;99.90
17701;DHT22;8969;48.576;12.580;2023-02-01T13:30:06;5.20;99.90
17701;DHT22;8969;48.576;12.580;2023-02-01T13:36:05;5.20;99.90
17701;DHT22;8969;48.576;12.580;2023-02-01T13:38:53;5.30;99.90
17701;DHT22;8969;48.576;12.580;2023-02-01T13:41:30;5.30;99.90
17701;DHT22;8969;48.576;12.580;2023-02-01T13:44:03;5.20;99.90
17701;DHT22;8969;48.576;12.580;2023-02-01T13:46:40;5.20;99.90
17701;DHT22;8969;48.576;12.580;2023-02-01T13:49:18;5.20;99.90
17701;DHT22;8969;48.576;12.580;2023-02-01T13:51:50;5.20;99.90
17701;DHT22;8969;48.576;12.580;2023-02-01T13:54:28;5.20;99.90
17701;DHT22;8969;48.576;12.580;2023-02-01T13:56:59;5.20;99.90
17701;DHT22;8969;48.576;12.580;2023-02-01T13:59:50;5.20;99.90
17701;DHT22;8969;48.576;12.580;2023-02-01T14:02:49;5.10;99.90
17701;DHT22;8969;48.576;12.580;2023-02-01T14:06:00;5.20;99.90
17701;DHT22;8969;48.576;12.580;2023-02-01T14:08:44;5.20;99.90
17701;DHT22;8969;48.576;12.580;2023-02-01T14:11:38;5.20;99.90
17701;DHT22;8969;48.576;12.580;2023-02-01T14:17:36;5.10;99.90
17701;DHT22;8969;48.576;12.580;2023-02-01T14:23:27;5.10;99.90
17701;DHT22;8969;48.576;12.580;2023-02-01T14:26:15;5.10;99.90
17701;DHT22;8969;48.576;12.580;2023-02-01T14:28:52;5.10;99.90
17701;DHT22;8969;48.576;12.580;2023-02-01T14:31:48;5.10;99.90
17701;DHT22;8969;48.576;12.580;2023-02-01T14:34:22;5.10;99.90
17701;DHT22;8969;48.576;12.580;2023-02-01T14:36:56;5.10;99.90
17701;DHT22;8969;48.576;12.580;2023-02-01T14:39:34;5.10;99.90
17701;DHT22;8969;48.576;12.580;2023-02-01T14:42:14;5.10;99.90
17701;DHT22;8969;48.576;12.580;2023-02-01T14:44:45;5.00;99.90
17701;DHT22;8969;48.576;12.580;2023-02-01T14:47:33;5.00;99.90
17701;DHT22;8969;48.576;12.580;2023-02-01T14:50:27;5.00;99.90
17701;DHT22;8969;48.576;12.580;2023-02-01T14:53:14;5.00;99.90
17701;DHT22;8969;48.576;12.580;2023-02-01T14:55:47;5.00;99.90
17701;DHT22;8969;48.576;12.580;2023-02-01T14:58:30;5.00;99.90
17701;DHT22;8969;48.576;12.580;2023-02-01T15:01:02;5.00;99.90
17701;DHT22;8969;48.576;12.580;2023-02-01T15:03:41;5.00;99.90
17701;DHT22;8969;48.576;12.580;2023-02-01T15:06:24;5.00;99.90
17701;DHT22;8969;48.576;12.580;2023-02-01T15:08:56;5.00;99.90
17701;DHT22;8969;48.576;12.580;2023-02-01T15:11:26;5.00;99.90
17701;DHT22;8969;48.576;12.580;2023-02-01T15:13:55;5.00;99.90
17701;DHT22;8969;48.576;12.580;2023-02-01T15:16:26;5.00;99.90
17701;DHT22;8969;48.576;12.580;2023-02-01T15:19:08;5.00;99.90
17701;DHT22;8969;48.576;12.580;2023-02-01T15:21:44;5.00;99.90
17701;DHT22;8969;48.576;12.580;2023-02-01T15:24:14;5.00;99.90
17701;DHT22;8969;48.576;12.580;2023-02-01T15:26:48;5.00;99.90
17701;DHT22;8969;48.576;12.580;2023-02-01T15:29:21;5.00;99.90
17701;DHT22;8969;48.576;12.580;2023-02-01T15:31:52;5.00;99.90
17701;DHT22;8969;48.576;12.580;2023-02-01T15:34:21;5.00;99.90
17701;DHT22;8969;48.576;12.580;2023-02-01T15:36:50;5.00;99.90
17701;DHT22;8969;48.576;12.580;2023-02-01T15:39:33;4.90;99.90
17701;DHT22;8969;48.576;12.580;2023-02-01T15:42:11;5.00;99.90
17701;DHT22;8969;48.576;12.580;2023-02-01T15:44:43;5.00;99.90
17701;DHT22;8969;48.576;12.580;2023-02-01T15:47:16;5.00;99.90
17701;DHT22;8969;48.576;12.580;2023-02-01T15:49:46;5.00;99.90
17701;DHT22;8969;48.576;12.580;2023-02-01T15:52:24;4.90;99.90
17701;DHT22;8969;48.576;12.580;2023-02-01T15:54:56;4.90;99.90
17701;DHT22;8969;48.576;12.580;2023-02-01T15:57:27;4.90;99.90
17701;DHT22;8969;48.576;12.580;2023-02-01T16:00:00;4.90;99.90
17701;DHT22;8969;48.576;12.580;2023-02-01T16:02:42;4.90;99.90
17701;DHT22;8969;48.576;12.580;2023-02-01T16:05:29;4.90;99.90
17701;DHT22;8969;48.576;12.580;2023-02-01T16:08:03;4.90;99.90
17701;DHT22;8969;48.576;12.580;2023-02-01T16:10:39;4.90;99.90
17701;DHT22;8969;48.576;12.580;2023-02-01T16:13:09;4.90;99.90
17701;DHT22;8969;48.576;12.580;2023-02-01T16:15:39;4.90;99.90
17701;DHT22;8969;48.576;12.580;2023-02-01T16:18:08;4.90;99.90
17701;DHT22;8969;48.576;12.580;2023-02-01T16:20:37;4.90;99.90
17701;DHT22;8969;48.576;12.580;2023-02-01T16:23:07;4.80;99.90
17701;DHT22;8969;48.576;12.580;2023-02-01T16:25:37;4.90;99.90
17701;DHT22;8969;48.576;12.580;2023-02-01T16:28:05;4.90;99.90
17701;DHT22;8969;48.576;12.580;2023-02-01T16:30:36;4.80;99.90
17701;DHT22;8969;48.576;12.580;2023-02-01T16:33:05;4.80;99.90
17701;DHT22;8969;48.576;12.580;2023-02-01T16:35:38;4.80;99.90
17701;DHT22;8969;48.576;12.580;2023-02-01T16:38:11;4.80;99.90
17701;DHT22;8969;48.576;12.580;2023-02-01T16:40:40;4.80;99.90
17701;DHT22;8969;48.576;12.580;2023-02-01T16:43:12;4.80;99.90
17701;DHT22;8969;48.576;12.580;2023-02-01T16:45:42;4.70;99.90